Time;durP1;ratioP1;P1;durP2;ratioP2;P2;SDS_P1;SDS_P2;PMS_P1;PMS_P2;Temp;Humidity;BMP_temperature;BMP_pressure;BME280_temperature;BME280_humidity;BME280_pressure;Samples;Min_cycle;Max_cycle;Signal;HPM_P1;HPM_P2
2022/04/10 00:01:49;;;;;;;;;;;19.70;49.80;;;;;;5019103;28;19913;-53
2022/04/10 00:04:15;;;;;;;;;;;19.70;49.80;;;;;;5018572;28;19998;-54
2022/04/10 00:06:40;;;;;;;;;;;19.60;49.80;;;;;;5018513;28;19921;-54
2022/04/10 00:09:06;;;;;;;;;;;19.60;49.90;;;;;;5018221;28;19932;-55
2022/04/10 00:11:31;;;;;;;;;;;19.60;50.00;;;;;;5018456;28;19913;-54
2022/04/10 00:13:57;;;;;;;;;;;19.60;49.90;;;;;;5019817;28;20336;-54
2022/04/10 00:16:22;;;;;;;;;;;19.50;49.80;;;;;;5020951;28;20020;-55
2022/04/10 00:18:48;;;;;;;;;;;19.50;49.80;;;;;;5021740;28;19966;-52
2022/04/10 00:21:13;;;;;;;;;;;19.50;49.70;;;;;;5022141;28;19932;-54
2022/04/10 00:23:39;;;;;;;;;;;19.50;49.70;;;;;;5022029;28;20366;-52
2022/04/10 00:26:04;;;;;;;;;;;19.50;49.60;;;;;;5021871;28;19917;-53
2022/04/10 00:28:30;;;;;;;;;;;19.40;49.50;;;;;;5021903;28;20015;-52
2022/04/10 00:30:55;;;;;;;;;;;19.50;49.60;;;;;;5021773;28;20860;-54
2022/04/10 00:33:21;;;;;;;;;;;19.40;49.40;;;;;;5022256;28;20759;-54
2022/04/10 00:35:46;;;;;;;;;;;19.40;49.30;;;;;;5021899;28;19913;-55
2022/04/10 00:38:12;;;;;;;;;;;19.40;49.30;;;;;;5022279;28;19921;-53
2022/04/10 00:40:37;;;;;;;;;;;19.40;49.30;;;;;;5020333;22;20477;-49
2022/04/10 00:43:02;;;;;;;;;;;19.40;49.30;;;;;;5002626;28;19913;-50
2022/04/10 00:45:28;;;;;;;;;;;19.40;49.30;;;;;;4999891;28;19933;-52
2022/04/10 00:47:54;;;;;;;;;;;19.40;49.40;;;;;;5002569;28;19921;-54
2022/04/10 00:50:19;;;;;;;;;;;19.40;49.30;;;;;;5002413;28;19940;-53
2022/04/10 00:52:46;;;;;;;;;;;19.40;49.30;;;;;;5003034;28;20378;-51
2022/04/10 00:55:11;;;;;;;;;;;19.40;49.30;;;;;;5003018;28;19913;-51
2022/04/10 00:57:37;;;;;;;;;;;19.40;49.30;;;;;;5002555;28;19929;-49
2022/04/10 01:00:06;;;;;;;;;;;19.30;49.50;;;;;;5002403;28;19922;-48
2022/04/10 01:02:31;;;;;;;;;;;19.30;49.70;;;;;;5002089;28;19921;-51
2022/04/10 01:04:57;;;;;;;;;;;19.30;49.70;;;;;;5002389;28;19914;-47
2022/04/10 01:07:22;;;;;;;;;;;19.40;49.70;;;;;;5002992;28;19941;-51
2022/04/10 01:09:48;;;;;;;;;;;19.40;49.70;;;;;;5001660;28;19925;-48
2022/04/10 01:12:13;;;;;;;;;;;19.50;49.70;;;;;;5002794;28;19913;-48
2022/04/10 01:14:39;;;;;;;;;;;19.50;49.60;;;;;;5002958;28;19925;-50
2022/04/10 01:17:08;;;;;;;;;;;19.60;49.50;;;;;;5001774;28;20617;-52
2022/04/10 01:19:33;;;;;;;;;;;19.70;49.30;;;;;;4984429;28;19917;-48
2022/04/10 01:21:59;;;;;;;;;;;19.70;49.00;;;;;;5002667;28;19921;-46
2022/04/10 01:24:25;;;;;;;;;;;19.80;49.00;;;;;;5002332;28;19917;-49
2022/04/10 01:26:51;;;;;;;;;;;19.90;49.00;;;;;;5002182;28;19922;-49
2022/04/10 01:29:16;;;;;;;;;;;19.90;48.90;;;;;;5001293;28;20306;-52
2022/04/10 01:31:42;;;;;;;;;;;20.00;48.80;;;;;;5001376;28;19913;-49
2022/04/10 01:34:08;;;;;;;;;;;20.00;48.60;;;;;;5002071;28;19936;-50
2022/04/10 01:36:34;;;;;;;;;;;20.00;48.60;;;;;;4993732;28;19963;-50
2022/04/10 01:39:00;;;;;;;;;;;20.00;48.60;;;;;;5000176;28;19913;-49
2022/04/10 01:41:26;;;;;;;;;;;20.00;48.50;;;;;;5002120;28;19921;-49
2022/04/10 01:43:52;;;;;;;;;;;20.00;48.60;;;;;;5002748;28;20498;-53
2022/04/10 01:46:17;;;;;;;;;;;20.00;48.60;;;;;;5000821;28;20004;-48
2022/04/10 01:48:43;;;;;;;;;;;20.00;48.70;;;;;;5000607;28;20075;-52
2022/04/10 01:51:08;;;;;;;;;;;20.00;48.60;;;;;;5002018;28;19920;-51
2022/04/10 01:53:34;;;;;;;;;;;20.00;48.70;;;;;;5001623;28;19914;-52
2022/04/10 01:56:00;;;;;;;;;;;20.00;48.80;;;;;;5001744;28;19941;-52
2022/04/10 01:58:26;;;;;;;;;;;19.90;48.70;;;;;;5000338;28;19945;-52
2022/04/10 02:00:51;;;;;;;;;;;19.90;48.70;;;;;;5001179;28;19925;-53
2022/04/10 02:03:16;;;;;;;;;;;19.90;48.80;;;;;;5001207;28;19918;-48
2022/04/10 02:05:42;;;;;;;;;;;19.90;48.80;;;;;;5001985;28;20313;-48
2022/04/10 02:08:07;;;;;;;;;;;19.90;48.90;;;;;;5001757;28;19971;-51
2022/04/10 02:10:33;;;;;;;;;;;19.90;48.90;;;;;;4998750;28;19913;-50
2022/04/10 02:12:58;;;;;;;;;;;19.80;48.90;;;;;;5001129;28;19917;-48
2022/04/10 02:15:24;;;;;;;;;;;19.90;48.90;;;;;;5000454;28;19917;-49
2022/04/10 02:17:49;;;;;;;;;;;19.90;48.90;;;;;;5001597;28;20278;-54
2022/04/10 02:20:15;;;;;;;;;;;19.90;48.90;;;;;;5000002;28;20012;-47
2022/04/10 02:22:40;;;;;;;;;;;19.80;48.90;;;;;;5000918;28;19926;-53
2022/04/10 02:25:06;;;;;;;;;;;19.80;48.90;;;;;;5000938;28;19948;-51
2022/04/10 02:27:31;;;;;;;;;;;19.80;48.90;;;;;;5001059;28;20311;-47
2022/04/10 02:29:57;;;;;;;;;;;19.70;48.90;;;;;;4999849;28;19960;-50
2022/04/10 02:32:23;;;;;;;;;;;19.70;48.90;;;;;;4994182;28;19925;-52
2022/04/10 02:34:48;;;;;;;;;;;19.70;49.00;;;;;;5020827;28;19917;-52
2022/04/10 02:37:14;;;;;;;;;;;19.70;48.90;;;;;;5011683;28;19985;-51
2022/04/10 02:39:39;;;;;;;;;;;19.70;48.90;;;;;;4999088;28;20555;-47
2022/04/10 02:42:05;;;;;;;;;;;19.60;48.80;;;;;;5000661;28;19917;-54
2022/04/10 02:44:30;;;;;;;;;;;19.60;48.80;;;;;;4999677;28;19920;-53
2022/04/10 02:46:56;;;;;;;;;;;19.60;48.80;;;;;;5000123;28;20463;-50
2022/04/10 02:49:21;;;;;;;;;;;19.60;48.80;;;;;;4999714;28;19913;-51
2022/04/10 02:51:49;;;;;;;;;;;19.60;48.80;;;;;;5000770;28;19956;-49
2022/04/10 02:54:15;;;;;;;;;;;19.50;48.90;;;;;;5000323;28;19925;-50
2022/04/10 02:56:41;;;;;;;;;;;19.50;48.90;;;;;;4983150;28;19947;-51
2022/04/10 02:59:08;;;;;;;;;;;19.50;49.00;;;;;;4998210;28;19917;-48
2022/04/10 03:01:33;;;;;;;;;;;19.50;49.10;;;;;;5000762;28;19953;-51
2022/04/10 03:03:59;;;;;;;;;;;19.50;49.00;;;;;;4999702;28;20423;-51
2022/04/10 03:06:24;;;;;;;;;;;19.40;48.90;;;;;;5000378;28;19987;-48
2022/04/10 03:08:50;;;;;;;;;;;19.40;48.90;;;;;;4998951;28;20088;-51
2022/04/10 03:11:16;;;;;;;;;;;19.40;48.90;;;;;;5000259;28;20714;-51
2022/04/10 03:13:41;;;;;;;;;;;19.40;48.70;;;;;;4999404;28;19913;-51
2022/04/10 03:16:07;;;;;;;;;;;19.40;48.80;;;;;;5000473;28;19913;-49
2022/04/10 03:18:32;;;;;;;;;;;19.40;48.70;;;;;;4998742;28;19918;-48
2022/04/10 03:20:57;;;;;;;;;;;19.30;48.60;;;;;;5000889;28;19917;-48
2022/04/10 03:23:23;;;;;;;;;;;19.30;48.60;;;;;;4991435;28;19917;-50
2022/04/10 03:25:49;;;;;;;;;;;19.30;48.50;;;;;;5020084;28;19921;-53
2022/04/10 03:28:14;;;;;;;;;;;19.30;48.50;;;;;;4998181;28;19920;-50
2022/04/10 03:30:40;;;;;;;;;;;19.30;48.50;;;;;;4999833;28;19932;-54
2022/04/10 03:33:05;;;;;;;;;;;19.30;48.50;;;;;;4999776;28;19928;-49
2022/04/10 03:35:30;;;;;;;;;;;19.30;48.50;;;;;;4999712;28;19913;-51
2022/04/10 03:37:56;;;;;;;;;;;19.30;48.70;;;;;;4999817;28;19924;-54
2022/04/10 03:40:21;;;;;;;;;;;19.20;48.90;;;;;;4999043;28;20493;-53
2022/04/10 03:42:47;;;;;;;;;;;19.30;48.90;;;;;;4999096;28;19918;-52
2022/04/10 03:45:13;;;;;;;;;;;19.30;49.60;;;;;;4999863;28;19917;-52
2022/04/10 03:47:38;;;;;;;;;;;19.30;48.90;;;;;;5000938;28;19979;-47
2022/04/10 03:50:04;;;;;;;;;;;19.30;49.00;;;;;;5003463;28;19917;-49
2022/04/10 03:52:30;;;;;;;;;;;19.30;49.00;;;;;;5003582;28;20136;-48
2022/04/10 03:54:55;;;;;;;;;;;19.40;49.00;;;;;;5003862;28;19944;-51
2022/04/10 03:57:20;;;;;;;;;;;19.40;49.00;;;;;;5003532;28;20019;-55
2022/04/10 03:59:46;;;;;;;;;;;19.50;48.90;;;;;;5002653;28;19922;-52
2022/04/10 04:02:14;;;;;;;;;;;19.50;48.70;;;;;;5004212;28;19918;-49
2022/04/10 04:04:40;;;;;;;;;;;19.60;48.60;;;;;;5006401;28;19917;-50
2022/04/10 04:07:05;;;;;;;;;;;19.60;48.60;;;;;;5004309;28;19917;-48
2022/04/10 04:09:31;;;;;;;;;;;19.70;48.50;;;;;;5002201;28;19918;-49
2022/04/10 04:11:56;;;;;;;;;;;19.70;48.60;;;;;;5003294;28;19917;-48
2022/04/10 04:14:22;;;;;;;;;;;19.70;48.40;;;;;;5004020;28;19920;-53
2022/04/10 04:16:47;;;;;;;;;;;19.70;48.40;;;;;;5001032;28;20414;-50
2022/04/10 04:19:13;;;;;;;;;;;19.80;48.30;;;;;;4999670;28;19925;-48
2022/04/10 04:21:38;;;;;;;;;;;19.70;48.20;;;;;;5002039;28;20022;-53
2022/04/10 04:24:04;;;;;;;;;;;19.80;48.30;;;;;;5002243;28;19932;-49
2022/04/10 04:26:29;;;;;;;;;;;19.80;48.30;;;;;;5001979;28;19917;-48
2022/04/10 04:28:55;;;;;;;;;;;19.80;48.30;;;;;;4998790;28;19917;-47
2022/04/10 04:31:20;;;;;;;;;;;19.80;48.20;;;;;;5002603;28;19960;-48
2022/04/10 04:33:45;;;;;;;;;;;19.80;48.30;;;;;;5002527;28;19917;-49
2022/04/10 04:36:11;;;;;;;;;;;19.80;48.30;;;;;;5002959;28;19914;-48
2022/04/10 04:38:37;;;;;;;;;;;19.70;48.30;;;;;;5000091;28;19975;-46
2022/04/10 04:41:02;;;;;;;;;;;19.70;48.30;;;;;;5002181;28;20498;-48
2022/04/10 04:43:28;;;;;;;;;;;19.70;48.40;;;;;;5002600;28;19922;-47
2022/04/10 04:45:53;;;;;;;;;;;19.70;48.40;;;;;;5003171;28;19972;-49
2022/04/10 04:48:18;;;;;;;;;;;19.70;48.60;;;;;;5002241;28;20359;-49
2022/04/10 04:50:44;;;;;;;;;;;19.70;48.50;;;;;;5001584;28;19921;-50
2022/04/10 04:53:09;;;;;;;;;;;19.70;48.50;;;;;;5002032;28;19924;-47
2022/04/10 04:55:35;;;;;;;;;;;19.60;48.40;;;;;;5001518;28;19918;-52
2022/04/10 04:58:00;;;;;;;;;;;19.70;48.40;;;;;;5002443;28;19913;-50
2022/04/10 05:00:26;;;;;;;;;;;19.70;48.40;;;;;;5000403;28;19921;-51
2022/04/10 05:02:51;;;;;;;;;;;19.70;48.40;;;;;;5002826;28;20701;-47
2022/04/10 05:05:16;;;;;;;;;;;19.60;48.40;;;;;;5002074;28;19917;-50
2022/04/10 05:07:42;;;;;;;;;;;19.60;48.40;;;;;;5002148;28;19921;-48
2022/04/10 05:10:07;;;;;;;;;;;19.60;48.50;;;;;;5000108;28;20127;-53
2022/04/10 05:12:34;;;;;;;;;;;19.60;48.50;;;;;;5001578;28;19976;-47
2022/04/10 05:15:00;;;;;;;;;;;19.50;48.50;;;;;;4989894;28;19920;-49
2022/04/10 05:17:26;;;;;;;;;;;19.50;48.50;;;;;;5002001;28;19937;-49
2022/04/10 05:19:52;;;;;;;;;;;19.50;48.50;;;;;;5001613;28;19957;-52
2022/04/10 05:22:17;;;;;;;;;;;19.50;48.50;;;;;;5001772;28;20378;-47
2022/04/10 05:24:43;;;;;;;;;;;19.50;48.40;;;;;;5001355;28;19924;-50
2022/04/10 05:27:10;;;;;;;;;;;19.50;48.40;;;;;;5001975;28;19922;-52
2022/04/10 05:29:36;;;;;;;;;;;19.50;48.30;;;;;;5001078;28;19952;-48
2022/04/10 05:32:01;;;;;;;;;;;19.40;48.30;;;;;;5002004;28;19948;-47
2022/04/10 05:34:27;;;;;;;;;;;19.40;48.20;;;;;;5001857;28;19929;-51
2022/04/10 05:36:52;;;;;;;;;;;19.40;48.30;;;;;;5001559;28;19913;-50
2022/04/10 05:39:18;;;;;;;;;;;19.40;48.40;;;;;;4999911;28;20729;-49
2022/04/10 05:41:43;;;;;;;;;;;19.40;48.50;;;;;;4984137;28;19999;-48
2022/04/10 05:44:09;;;;;;;;;;;19.30;48.50;;;;;;5001481;28;19913;-51
2022/04/10 05:46:38;;;;;;;;;;;19.30;48.60;;;;;;5001406;28;19922;-51
2022/04/10 05:49:06;;;;;;;;;;;19.30;48.70;;;;;;4999760;28;19937;-47
2022/04/10 05:51:32;;;;;;;;;;;19.30;48.50;;;;;;5001237;28;19925;-48
2022/04/10 05:53:57;;;;;;;;;;;19.30;48.00;;;;;;5000577;28;19913;-50
2022/04/10 05:56:23;;;;;;;;;;;19.40;47.90;;;;;;5001856;28;19920;-50
2022/04/10 05:58:48;;;;;;;;;;;19.50;47.90;;;;;;5000339;28;19917;-46
2022/04/10 06:01:14;;;;;;;;;;;19.50;47.80;;;;;;5000859;28;19917;-47
2022/04/10 06:03:40;;;;;;;;;;;19.60;47.60;;;;;;5000952;28;19925;-52
2022/04/10 06:06:05;;;;;;;;;;;19.70;47.60;;;;;;5000971;28;19921;-52
2022/04/10 06:08:31;;;;;;;;;;;19.60;47.40;;;;;;4999180;28;19918;-47
2022/04/10 06:10:56;;;;;;;;;;;19.70;47.50;;;;;;5000038;28;20313;-48
2022/04/10 06:13:22;;;;;;;;;;;19.60;47.40;;;;;;4966896;28;19924;-49
2022/04/10 06:15:47;;;;;;;;;;;19.70;47.40;;;;;;5000981;28;19920;-49
2022/04/10 06:18:13;;;;;;;;;;;19.70;47.40;;;;;;5000558;28;19917;-51
2022/04/10 06:20:38;;;;;;;;;;;19.70;47.50;;;;;;5011399;28;19972;-53
2022/04/10 06:23:04;;;;;;;;;;;19.70;47.70;;;;;;5000442;28;20294;-52
2022/04/10 06:25:29;;;;;;;;;;;19.70;47.90;;;;;;4993759;28;20029;-49
2022/04/10 06:27:56;;;;;;;;;;;19.80;48.10;;;;;;5004786;28;20591;-52
2022/04/10 06:30:22;;;;;;;;;;;19.90;48.40;;;;;;4999272;28;19925;-46
2022/04/10 06:32:47;;;;;;;;;;;20.00;48.70;;;;;;5000535;28;19968;-47
2022/04/10 06:35:13;;;;;;;;;;;19.90;48.90;;;;;;4999379;28;19924;-49
2022/04/10 06:37:39;;;;;;;;;;;20.00;49.10;;;;;;4999480;28;19921;-49
2022/04/10 06:40:05;;;;;;;;;;;20.00;49.20;;;;;;5018024;22;19932;-58
2022/04/10 06:42:30;;;;;;;;;;;20.00;49.20;;;;;;5034372;28;20003;-58
2022/04/10 06:44:56;;;;;;;;;;;20.10;49.30;;;;;;5039239;28;19920;-58
2022/04/10 06:47:21;;;;;;;;;;;20.10;49.40;;;;;;5023259;28;20391;-59
2022/04/10 06:49:46;;;;;;;;;;;20.10;49.30;;;;;;5019615;28;19961;-58
2022/04/10 06:52:12;;;;;;;;;;;20.10;49.40;;;;;;5019464;28;19983;-58
2022/04/10 06:54:37;;;;;;;;;;;20.10;49.40;;;;;;5019396;28;20054;-59
2022/04/10 06:57:03;;;;;;;;;;;20.10;49.30;;;;;;5026383;28;20578;-58
2022/04/10 06:59:28;;;;;;;;;;;20.00;49.20;;;;;;5037113;28;19978;-56
2022/04/10 07:01:54;;;;;;;;;;;20.00;49.40;;;;;;5027685;28;19917;-58
2022/04/10 07:04:19;;;;;;;;;;;20.00;49.30;;;;;;5018717;28;19913;-56
2022/04/10 07:06:46;;;;;;;;;;;20.00;49.20;;;;;;5025408;28;19927;-59
2022/04/10 07:09:14;;;;;;;;;;;20.00;49.30;;;;;;5031413;28;19916;-58
2022/04/10 07:11:40;;;;;;;;;;;19.90;49.20;;;;;;5031396;28;20019;-59
2022/04/10 07:14:06;;;;;;;;;;;19.90;49.30;;;;;;5037575;28;20063;-58
2022/04/10 07:16:31;;;;;;;;;;;19.90;49.30;;;;;;5034308;28;20377;-58
2022/04/10 07:18:57;;;;;;;;;;;19.90;49.30;;;;;;5019654;28;19913;-57
2022/04/10 07:23:41;;;;;;;;;;;19.80;49.20;;;;;;5019346;28;19919;-56
2022/04/10 07:24:08;;;;;;;;;;;19.80;49.40;;;;;;5019264;28;19920;-57
2022/04/10 07:26:33;;;;;;;;;;;19.80;50.00;;;;;;5019824;28;19921;-57
2022/04/10 07:28:59;;;;;;;;;;;19.80;49.50;;;;;;5019991;28;20575;-58
2022/04/10 07:31:25;;;;;;;;;;;19.90;49.70;;;;;;5020850;28;19917;-55
2022/04/10 07:33:50;;;;;;;;;;;19.80;49.60;;;;;;5017519;28;19917;-56
2022/04/10 07:36:15;;;;;;;;;;;19.80;49.70;;;;;;5018759;28;19983;-55
2022/04/10 07:38:41;;;;;;;;;;;19.80;49.60;;;;;;5018420;28;20280;-56
2022/04/10 07:41:06;;;;;;;;;;;19.80;49.50;;;;;;5018968;28;19929;-54
2022/04/10 07:43:32;;;;;;;;;;;19.80;49.40;;;;;;5024173;28;20537;-57
2022/04/10 07:48:42;;;;;;;;;;;19.70;49.50;;;;;;5019814;28;20127;-57
2022/04/10 07:51:08;;;;;;;;;;;19.80;49.90;;;;;;5019144;28;20243;-57
2022/04/10 07:53:34;;;;;;;;;;;19.80;49.90;;;;;;5018731;28;19917;-56
2022/04/10 07:55:59;;;;;;;;;;;19.80;50.10;;;;;;5018937;28;20429;-54
2022/04/10 07:58:25;;;;;;;;;;;19.80;50.30;;;;;;5018699;28;19949;-55
2022/04/10 08:00:50;;;;;;;;;;;19.90;50.50;;;;;;5033009;28;20289;-57
2022/04/10 08:03:16;;;;;;;;;;;19.90;50.80;;;;;;5025687;28;19921;-56
2022/04/10 08:05:41;;;;;;;;;;;19.90;51.30;;;;;;5018484;28;19925;-57
2022/04/10 08:08:07;;;;;;;;;;;19.90;51.80;;;;;;5022492;28;19964;-57
2022/04/10 08:10:32;;;;;;;;;;;19.90;52.00;;;;;;5037507;28;19924;-55
2022/04/10 08:12:58;;;;;;;;;;;19.80;52.20;;;;;;5037524;28;19917;-57
2022/04/10 08:15:24;;;;;;;;;;;19.80;52.30;;;;;;5038868;28;19921;-57
2022/04/10 08:17:50;;;;;;;;;;;19.80;52.50;;;;;;5032583;28;20161;-56
2022/04/10 08:20:16;;;;;;;;;;;19.70;52.50;;;;;;5038362;28;19927;-58
2022/04/10 08:22:41;;;;;;;;;;;19.80;53.00;;;;;;5032320;28;20459;-57
2022/04/10 08:25:07;;;;;;;;;;;19.80;53.80;;;;;;5019510;28;19921;-54
2022/04/10 08:27:33;;;;;;;;;;;20.00;54.50;;;;;;5023585;28;20485;-58
2022/04/10 08:29:58;;;;;;;;;;;20.20;53.70;;;;;;5013057;28;20005;-54
2022/04/10 08:32:24;;;;;;;;;;;20.30;53.10;;;;;;5025837;28;19919;-57
2022/04/10 08:34:50;;;;;;;;;;;20.20;52.80;;;;;;5036950;28;20408;-54
2022/04/10 08:37:15;;;;;;;;;;;20.20;52.90;;;;;;5035685;28;19917;-54
2022/04/10 08:39:41;;;;;;;;;;;20.30;53.00;;;;;;5041762;28;19951;-57
2022/04/10 08:42:06;;;;;;;;;;;20.40;53.10;;;;;;5045283;28;19924;-57
2022/04/10 08:44:32;;;;;;;;;;;20.40;53.10;;;;;;5036804;28;20381;-57
2022/04/10 08:46:58;;;;;;;;;;;20.40;53.00;;;;;;5041455;28;20663;-52
2022/04/10 08:49:26;;;;;;;;;;;20.40;53.00;;;;;;5035009;28;19966;-53
2022/04/10 08:51:52;;;;;;;;;;;20.50;53.60;;;;;;5036101;28;19928;-56
2022/04/10 08:54:21;;;;;;;;;;;20.60;54.40;;;;;;5043400;28;20301;-55
2022/04/10 08:56:46;;;;;;;;;;;20.50;54.60;;;;;;5045285;28;19920;-55
2022/04/10 08:59:12;;;;;;;;;;;20.50;54.40;;;;;;5032702;28;19971;-56
2022/04/10 09:01:37;;;;;;;;;;;20.50;54.20;;;;;;5024451;28;19924;-54
2022/04/10 09:04:03;;;;;;;;;;;20.50;53.90;;;;;;5029639;28;20400;-57
2022/04/10 09:06:29;;;;;;;;;;;20.50;53.70;;;;;;5040446;28;19921;-55
2022/04/10 09:09:09;;;;;;;;;;;20.60;53.70;;;;;;5026407;28;20332;-55
2022/04/10 09:11:34;;;;;;;;;;;20.60;53.80;;;;;;5025803;28;19913;-56
2022/04/10 09:14:00;;;;;;;;;;;20.60;53.70;;;;;;5040898;28;19932;-55
2022/04/10 09:16:26;;;;;;;;;;;20.60;53.60;;;;;;5042089;28;19923;-54
2022/04/10 09:18:53;;;;;;;;;;;20.60;53.60;;;;;;5036547;28;19917;-53
2022/04/10 09:21:24;;;;;;;;;;;20.70;53.80;;;;;;5027793;28;20002;-53
2022/04/10 09:23:57;;;;;;;;;;;20.80;54.10;;;;;;5038624;28;19936;-56
2022/04/10 09:26:23;;;;;;;;;;;20.90;54.40;;;;;;5036431;28;19932;-54
2022/04/10 09:28:49;;;;;;;;;;;20.80;54.50;;;;;;5039167;28;19913;-55
2022/04/10 09:31:27;;;;;;;;;;;20.80;54.90;;;;;;5040282;28;19917;-56
2022/04/10 09:33:53;;;;;;;;;;;20.90;55.40;;;;;;5039412;28;20413;-56
2022/04/10 09:36:28;;;;;;;;;;;20.80;56.00;;;;;;5020853;28;19913;-57
2022/04/10 09:38:54;;;;;;;;;;;20.80;57.30;;;;;;5037326;28;20469;-56
2022/04/10 09:41:19;;;;;;;;;;;20.90;58.90;;;;;;5042514;28;20018;-56
2022/04/10 09:43:45;;;;;;;;;;;20.90;59.90;;;;;;5042820;28;19958;-57
2022/04/10 09:46:13;;;;;;;;;;;20.90;60.60;;;;;;5025573;28;19948;-56
2022/04/10 09:48:39;;;;;;;;;;;20.90;60.70;;;;;;5025019;28;19917;-54
2022/04/10 09:51:05;;;;;;;;;;;20.90;60.20;;;;;;5025686;28;20302;-56
2022/04/10 09:53:31;;;;;;;;;;;20.80;59.60;;;;;;5037786;28;19920;-54
2022/04/10 09:56:02;;;;;;;;;;;20.70;59.20;;;;;;5040873;28;19916;-52
2022/04/10 09:58:27;;;;;;;;;;;20.60;58.70;;;;;;5044012;28;20348;-50
2022/04/10 10:00:56;;;;;;;;;;;20.60;58.20;;;;;;5043264;28;19928;-55
2022/04/10 10:03:22;;;;;;;;;;;20.50;57.60;;;;;;5041630;28;20488;-56
2022/04/10 10:05:52;;;;;;;;;;;20.40;57.10;;;;;;5042029;28;19959;-54
2022/04/10 10:08:17;;;;;;;;;;;20.50;57.30;;;;;;5045478;28;19921;-55
2022/04/10 10:10:43;;;;;;;;;;;20.50;57.00;;;;;;5041050;28;19924;-55
2022/04/10 10:13:08;;;;;;;;;;;20.40;56.30;;;;;;5042027;28;20685;-53
2022/04/10 10:15:34;;;;;;;;;;;20.40;55.90;;;;;;5041043;28;19917;-53
2022/04/10 10:18:00;;;;;;;;;;;20.30;55.50;;;;;;5045029;28;19971;-56
2022/04/10 10:20:26;;;;;;;;;;;20.30;55.30;;;;;;5044483;28;19925;-56
2022/04/10 10:22:51;;;;;;;;;;;20.30;55.90;;;;;;5043971;28;19920;-53
2022/04/10 10:25:24;;;;;;;;;;;20.30;55.90;;;;;;5043280;28;19968;-57
2022/04/10 10:27:59;;;;;;;;;;;20.30;56.10;;;;;;5043675;28;20058;-55
2022/04/10 10:30:43;;;;;;;;;;;20.40;56.10;;;;;;5043262;28;20408;-55
2022/04/10 10:33:16;;;;;;;;;;;20.60;55.90;;;;;;5042496;28;19916;-57
2022/04/10 10:35:42;;;;;;;;;;;20.80;55.40;;;;;;5032290;28;19948;-55
2022/04/10 10:38:20;;;;;;;;;;;20.90;55.20;;;;;;5035589;28;19990;-55
2022/04/10 10:40:46;;;;;;;;;;;21.00;55.00;;;;;;5041358;28;19920;-57
2022/04/10 10:43:11;;;;;;;;;;;21.10;54.90;;;;;;5043348;28;19924;-56
2022/04/10 10:45:41;;;;;;;;;;;21.00;54.80;;;;;;5022589;28;20271;-54
2022/04/10 10:48:25;;;;;;;;;;;21.10;54.90;;;;;;5034845;28;19925;-56
2022/04/10 10:50:51;;;;;;;;;;;21.20;54.90;;;;;;5038606;28;19921;-58
2022/04/10 10:53:23;;;;;;;;;;;21.20;54.90;;;;;;5042638;28;20833;-56
2022/04/10 10:55:52;;;;;;;;;;;21.20;55.20;;;;;;5030438;28;19924;-57
2022/04/10 10:58:30;;;;;;;;;;;21.30;55.40;;;;;;5030612;28;19924;-57
2022/04/10 11:00:59;;;;;;;;;;;21.30;55.60;;;;;;5039634;28;19916;-55
2022/04/10 11:03:24;;;;;;;;;;;21.30;55.90;;;;;;5036087;28;19973;-56
2022/04/10 11:05:51;;;;;;;;;;;21.30;56.10;;;;;;5033483;28;19925;-57
2022/04/10 11:08:18;;;;;;;;;;;21.30;56.20;;;;;;5036150;28;20015;-56
2022/04/10 11:11:02;;;;;;;;;;;21.40;56.50;;;;;;5039094;28;19916;-55
2022/04/10 11:13:37;;;;;;;;;;;21.40;56.50;;;;;;5035846;28;19925;-55
2022/04/10 11:16:10;;;;;;;;;;;21.40;57.00;;;;;;5040889;28;19917;-55
2022/04/10 11:18:39;;;;;;;;;;;21.40;57.40;;;;;;5037828;28;19931;-55
2022/04/10 11:21:05;;;;;;;;;;;21.50;58.30;;;;;;5040178;28;19979;-56
2022/04/10 11:23:31;;;;;;;;;;;21.50;59.40;;;;;;5035744;28;19943;-56
2022/04/10 11:26:06;;;;;;;;;;;21.50;59.20;;;;;;5036654;28;19924;-56
2022/04/10 11:28:36;;;;;;;;;;;21.50;59.60;;;;;;5037615;28;19912;-55
2022/04/10 11:31:02;;;;;;;;;;;21.40;60.10;;;;;;5039665;28;19917;-56
2022/04/10 11:33:42;;;;;;;;;;;21.40;60.40;;;;;;5036855;28;20343;-56
2022/04/10 11:36:14;;;;;;;;;;;21.40;60.80;;;;;;5034531;28;19967;-55
2022/04/10 11:38:40;;;;;;;;;;;21.40;61.10;;;;;;5019420;28;19966;-55
2022/04/10 11:41:06;;;;;;;;;;;21.40;61.40;;;;;;5039514;28;19925;-56
2022/04/10 11:43:31;;;;;;;;;;;21.30;61.50;;;;;;5019515;28;20396;-55
2022/04/10 11:45:57;;;;;;;;;;;21.30;62.30;;;;;;5039400;28;19929;-57
2022/04/10 11:48:24;;;;;;;;;;;21.30;61.80;;;;;;5035455;28;20884;-56
2022/04/10 11:50:50;;;;;;;;;;;21.40;61.70;;;;;;5040203;28;19924;-54
2022/04/10 11:53:15;;;;;;;;;;;21.40;62.00;;;;;;5034157;28;20632;-55
2022/04/10 11:55:42;;;;;;;;;;;21.40;62.00;;;;;;5043329;28;19924;-54
2022/04/10 11:58:25;;;;;;;;;;;21.40;62.20;;;;;;5036756;28;19955;-56
2022/04/10 12:00:51;;;;;;;;;;;21.40;62.40;;;;;;5039914;28;19967;-53
2022/04/10 12:03:17;;;;;;;;;;;21.40;62.50;;;;;;5027462;28;20282;-56
2022/04/10 12:05:42;;;;;;;;;;;21.40;62.60;;;;;;5027404;28;19929;-56
2022/04/10 12:08:08;;;;;;;;;;;21.40;63.60;;;;;;5031681;28;19939;-56
2022/04/10 12:10:33;;;;;;;;;;;21.40;63.70;;;;;;5045021;28;19925;-54
2022/04/10 12:12:59;;;;;;;;;;;21.30;63.50;;;;;;5039939;28;19916;-55
2022/04/10 12:15:24;;;;;;;;;;;21.40;63.30;;;;;;5046240;28;19924;-54
2022/04/10 12:18:02;;;;;;;;;;;21.30;63.50;;;;;;5026659;28;19928;-57
2022/04/10 12:20:27;;;;;;;;;;;21.30;63.80;;;;;;5027118;28;19967;-53
2022/04/10 12:22:53;;;;;;;;;;;21.30;63.70;;;;;;5024009;28;20216;-53
2022/04/10 12:25:18;;;;;;;;;;;21.30;64.10;;;;;;5028299;28;20538;-57
2022/04/10 12:27:44;;;;;;;;;;;21.40;64.20;;;;;;5024675;28;19987;-53
2022/04/10 12:30:10;;;;;;;;;;;21.30;64.00;;;;;;5027678;28;20198;-55
2022/04/10 12:32:35;;;;;;;;;;;21.30;64.70;;;;;;5021989;28;19921;-55
2022/04/10 12:35:07;;;;;;;;;;;21.30;64.60;;;;;;5027255;28;19913;-56
2022/04/10 12:37:33;;;;;;;;;;;21.40;64.70;;;;;;5022953;28;19927;-55
2022/04/10 12:42:36;;;;;;;;;;;21.40;64.40;;;;;;5012896;28;19975;-52
2022/04/10 12:45:03;;;;;;;;;;;21.40;64.40;;;;;;5023278;28;19914;-51
2022/04/10 12:47:44;;;;;;;;;;;21.30;63.80;;;;;;4985160;28;19940;-52
2022/04/10 12:50:10;;;;;;;;;;;21.20;63.40;;;;;;5004428;28;19917;-51
2022/04/10 12:52:40;;;;;;;;;;;21.10;62.10;;;;;;5014174;28;19913;-50
2022/04/10 12:55:18;;;;;;;;;;;21.10;62.40;;;;;;5025201;28;19924;-54
2022/04/10 12:57:54;;;;;;;;;;;21.10;62.50;;;;;;5015424;28;20015;-52
2022/04/10 13:00:23;;;;;;;;;;;21.20;62.50;;;;;;5003333;28;19914;-53
2022/04/10 13:02:49;;;;;;;;;;;21.20;62.50;;;;;;5000105;28;19920;-54
2022/04/10 13:05:16;;;;;;;;;;;21.20;62.50;;;;;;5024317;28;19924;-53
2022/04/10 13:07:58;;;;;;;;;;;21.20;62.30;;;;;;5024441;28;19921;-52
2022/04/10 13:10:23;;;;;;;;;;;21.30;62.10;;;;;;5006914;28;20458;-53
2022/04/10 13:12:48;;;;;;;;;;;21.20;62.00;;;;;;5005167;28;20008;-55
2022/04/10 13:15:27;;;;;;;;;;;21.30;62.00;;;;;;4985639;28;19940;-52
2022/04/10 13:17:55;;;;;;;;;;;21.30;61.80;;;;;;5009877;28;20558;-50
2022/04/10 13:20:22;;;;;;;;;;;21.30;61.70;;;;;;5023665;28;19917;-50
2022/04/10 13:22:48;;;;;;;;;;;21.20;61.60;;;;;;5017016;28;19924;-54
2022/04/10 13:25:13;;;;;;;;;;;21.20;61.70;;;;;;4989400;28;20294;-53
2022/04/10 13:27:39;;;;;;;;;;;21.20;61.70;;;;;;4992703;28;19999;-52
2022/04/10 13:30:05;;;;;;;;;;;21.20;61.60;;;;;;5022516;28;19920;-51
2022/04/10 13:32:30;;;;;;;;;;;21.20;61.50;;;;;;5020712;28;19914;-51
2022/04/10 13:34:57;;;;;;;;;;;21.10;61.20;;;;;;5004595;28;19914;-55
2022/04/10 13:37:22;;;;;;;;;;;21.10;61.20;;;;;;5005810;28;19918;-50
2022/04/10 13:39:48;;;;;;;;;;;21.00;61.10;;;;;;5022383;28;19917;-50
2022/04/10 13:42:13;;;;;;;;;;;21.00;61.20;;;;;;5024843;28;19925;-51
2022/04/10 13:44:39;;;;;;;;;;;21.00;61.40;;;;;;5004350;28;20498;-50
2022/04/10 13:47:04;;;;;;;;;;;21.00;61.50;;;;;;5004870;28;19924;-50
2022/04/10 13:49:30;;;;;;;;;;;20.90;61.50;;;;;;5020974;28;20467;-52
2022/04/10 13:51:55;;;;;;;;;;;20.90;61.40;;;;;;5023542;28;19927;-50
2022/04/10 13:54:20;;;;;;;;;;;20.80;61.20;;;;;;5007989;28;19921;-53
2022/04/10 13:56:46;;;;;;;;;;;20.80;61.00;;;;;;5004580;28;19917;-52
2022/04/10 13:59:11;;;;;;;;;;;20.70;61.10;;;;;;5016016;28;20685;-53
2022/04/10 14:01:37;;;;;;;;;;;20.70;60.70;;;;;;5024247;28;19970;-50
2022/04/10 14:04:03;;;;;;;;;;;20.70;60.50;;;;;;5011961;28;19941;-51
2022/04/10 14:06:28;;;;;;;;;;;20.60;60.30;;;;;;5003366;28;19927;-54
2022/04/10 14:08:58;;;;;;;;;;;20.60;60.10;;;;;;5012391;28;20058;-49
2022/04/10 14:11:23;;;;;;;;;;;20.60;60.10;;;;;;5023992;28;19917;-53
2022/04/10 14:13:49;;;;;;;;;;;20.60;59.90;;;;;;5015284;28;19917;-51
2022/04/10 14:16:14;;;;;;;;;;;20.50;59.80;;;;;;5004567;28;19914;-52
2022/04/10 14:18:40;;;;;;;;;;;20.50;59.70;;;;;;5009176;28;20354;-50